Time;durP1;ratioP1;P1;durP2;ratioP2;P2;SDS_P1;SDS_P2;PMS_P1;PMS_P2;Temp;Humidity;BMP_temperature;BMP_pressure;BME280_temperature;BME280_humidity;BME280_pressure;Samples;Min_cycle;Max_cycle;Signal;HPM_P1;HPM_P2
2022/10/11 00:00:40;;;;;;;5.88;3.42;;;12.70;66.70;;;;;;5113716;27;20453;-78
2022/10/11 00:03:19;;;;;;;5.57;3.72;;;12.70;66.60;;;;;;5027670;27;20409;-79
2022/10/11 00:06:01;;;;;;;6.78;4.00;;;12.70;66.60;;;;;;5032652;27;20436;-80
2022/10/11 00:08:40;;;;;;;6.88;3.50;;;12.60;66.60;;;;;;5038492;27;20409;-78
2022/10/11 00:11:18;;;;;;;6.28;3.60;;;12.60;66.60;;;;;;5041117;27;20459;-78
2022/10/11 00:13:56;;;;;;;4.70;3.53;;;12.60;66.60;;;;;;5091775;27;20404;-78
2022/10/11 00:16:34;;;;;;;5.03;3.35;;;12.60;66.80;;;;;;5042802;28;20414;-78
2022/10/11 00:19:13;;;;;;;5.70;3.42;;;12.50;66.90;;;;;;5092713;27;20697;-76
2022/10/11 00:21:51;;;;;;;4.50;3.65;;;12.50;66.80;;;;;;5093409;27;20436;-78
2022/10/11 00:24:28;;;;;;;5.75;3.80;;;12.50;66.90;;;;;;5091150;27;1333757;-77
2022/10/11 00:27:04;;;;;;;6.40;3.90;;;12.40;66.90;;;;;;5040332;27;1358254;-77
2022/10/11 00:29:42;;;;;;;5.55;3.67;;;12.40;67.00;;;;;;5027600;27;21011;-77
2022/10/11 00:32:20;;;;;;;6.55;3.22;;;12.40;67.00;;;;;;5073606;27;20829;-77
2022/10/11 00:35:03;;;;;;;5.45;3.50;;;12.40;67.00;;;;;;5044224;28;21023;-77
2022/10/11 00:37:41;;;;;;;6.80;3.55;;;12.40;67.00;;;;;;5101618;27;20430;-77
2022/10/11 00:40:20;;;;;;;5.60;3.72;;;12.40;67.10;;;;;;5094388;27;20434;-77
2022/10/11 00:42:58;;;;;;;7.75;3.72;;;12.40;67.20;;;;;;5058459;28;20412;-77
2022/10/11 00:45:36;;;;;;;4.60;3.60;;;12.40;67.20;;;;;;5054949;27;20450;-78
2022/10/11 00:48:21;;;;;;;6.35;3.60;;;12.40;67.20;;;;;;5029316;27;20428;-77
2022/10/11 00:51:02;;;;;;;6.22;3.10;;;12.30;67.00;;;;;;5027932;28;20503;-77
2022/10/11 00:53:42;;;;;;;5.85;4.07;;;12.40;67.00;;;;;;5036005;27;20463;-77
2022/10/11 00:56:25;;;;;;;6.85;3.58;;;12.30;67.00;;;;;;5033944;27;20472;-78
2022/10/11 00:59:08;;;;;;;7.00;3.80;;;12.30;67.00;;;;;;5038465;27;20959;-78
2022/10/11 01:01:46;;;;;;;5.10;3.72;;;12.30;67.00;;;;;;5089650;27;20426;-78
2022/10/11 01:04:24;;;;;;;5.70;3.47;;;12.30;67.10;;;;;;5101914;27;20409;-78
2022/10/11 01:07:03;;;;;;;6.43;3.60;;;12.30;67.10;;;;;;5054633;28;21026;-80
2022/10/11 01:09:41;;;;;;;4.40;3.45;;;12.30;66.90;;;;;;5053389;28;20397;-78
2022/10/11 01:12:23;;;;;;;5.82;3.83;;;12.30;66.90;;;;;;5027376;28;20879;-78
2022/10/11 01:15:48;;;;;;;7.03;3.83;;;12.30;67.10;;;;;;5083118;27;20472;-78
2022/10/11 01:18:33;;;;;;;5.53;3.53;;;12.20;67.20;;;;;;5017574;27;20409;-79
2022/10/11 01:21:29;;;;;;;5.63;3.75;;;12.30;67.30;;;;;;5029358;28;20413;-78
2022/10/11 01:24:31;;;;;;;6.63;3.92;;;12.30;67.30;;;;;;5029571;27;20452;-78
2022/10/11 01:27:33;;;;;;;5.40;3.50;;;12.20;67.20;;;;;;5072007;27;20468;-78
2022/10/11 01:30:38;;;;;;;6.70;3.90;;;12.20;67.30;;;;;;5030927;28;20400;-76
2022/10/11 01:33:21;;;;;;;7.05;4.25;;;12.20;67.30;;;;;;5047882;27;20845;-77
2022/10/11 01:36:40;;;;;;;7.32;4.38;;;12.20;67.30;;;;;;5075578;27;20414;-78
2022/10/11 01:40:11;;;;;;;5.93;3.90;;;12.10;67.30;;;;;;5047934;27;20403;-78
2022/10/11 01:42:51;;;;;;;6.35;3.80;;;12.10;67.40;;;;;;5023544;27;20444;-78
2022/10/11 01:45:30;;;;;;;6.90;3.95;;;12.10;67.30;;;;;;5046398;27;20408;-77
2022/10/11 01:48:10;;;;;;;5.22;3.88;;;12.00;67.30;;;;;;5021094;27;20430;-78
2022/10/11 01:50:57;;;;;;;6.90;3.70;;;12.10;67.40;;;;;;5061939;27;20411;-77
2022/10/11 01:54:03;;;;;;;4.57;3.53;;;12.10;67.40;;;;;;5077515;27;20134;-78
2022/10/11 01:57:28;;;;;;;4.90;3.70;;;12.00;67.40;;;;;;5067310;27;20434;-77
2022/10/11 02:00:19;;;;;;;4.45;3.45;;;12.00;67.40;;;;;;5050973;27;1345841;-77
2022/10/11 02:03:31;;;;;;;7.63;4.03;;;12.00;67.50;;;;;;5042530;27;1335654;-77
2022/10/11 02:06:19;;;;;;;6.60;3.53;;;12.00;67.50;;;;;;5069736;27;20406;-77
2022/10/11 02:09:11;;;;;;;6.43;3.45;;;12.00;67.40;;;;;;5024684;27;20945;-77
2022/10/11 02:11:52;;;;;;;5.32;3.58;;;12.00;67.50;;;;;;5032934;27;20413;-77
2022/10/11 02:14:36;;;;;;;4.88;3.08;;;11.90;67.50;;;;;;5030073;27;20445;-77
2022/10/11 02:17:21;;;;;;;5.00;3.33;;;11.90;67.40;;;;;;5043680;27;20405;-79
2022/10/11 02:20:04;;;;;;;7.00;3.42;;;11.90;67.60;;;;;;5037726;28;20408;-78
2022/10/11 02:22:48;;;;;;;5.28;3.35;;;11.90;67.60;;;;;;5078767;27;20400;-79
2022/10/11 02:25:29;;;;;;;5.32;3.38;;;11.90;67.50;;;;;;5055349;28;20406;-78
2022/10/11 02:28:15;;;;;;;4.85;3.15;;;11.90;67.50;;;;;;5151870;27;20433;-78
2022/10/11 02:30:53;;;;;;;5.82;3.45;;;11.90;67.50;;;;;;5026927;28;20397;-77
2022/10/11 02:33:36;;;;;;;6.20;3.72;;;11.80;67.40;;;;;;5051550;28;20943;-77
2022/10/11 02:36:31;;;;;;;4.57;2.88;;;11.90;67.40;;;;;;5071086;27;20486;-78
2022/10/11 02:39:20;;;;;;;4.65;3.00;;;11.80;67.40;;;;;;4998261;28;20412;-78
2022/10/11 02:42:03;;;;;;;5.63;3.05;;;11.80;67.40;;;;;;5077285;27;20357;-78
2022/10/11 02:44:46;;;;;;;5.68;3.50;;;11.80;67.50;;;;;;5028580;28;21003;-78
2022/10/11 02:47:23;;;;;;;3.75;3.00;;;11.80;67.40;;;;;;5028604;28;20407;-78
2022/10/11 02:50:02;;;;;;;4.82;3.00;;;11.80;67.40;;;;;;5038479;27;20461;-77
2022/10/11 02:52:41;;;;;;;6.10;2.90;;;11.80;67.40;;;;;;5080366;27;20400;-77
2022/10/11 02:55:20;;;;;;;8.77;3.80;;;11.70;67.40;;;;;;5055947;27;20869;-78
2022/10/11 02:57:58;;;;;;;6.75;3.30;;;11.70;67.40;;;;;;5058607;28;20408;-77
2022/10/11 03:00:36;;;;;;;4.63;2.85;;;11.70;67.40;;;;;;5038387;27;20408;-76
2022/10/11 03:03:14;;;;;;;4.88;3.50;;;11.70;67.50;;;;;;5048306;28;20895;-77
2022/10/11 03:06:00;;;;;;;6.95;3.45;;;11.70;67.30;;;;;;5015459;28;20399;-77
2022/10/11 03:08:38;;;;;;;7.50;3.58;;;11.70;67.20;;;;;;5047824;28;20428;-79
2022/10/11 03:11:17;;;;;;;4.50;3.40;;;11.70;67.10;;;;;;5038324;28;20850;-77
2022/10/11 03:13:55;;;;;;;4.97;3.50;;;11.70;67.10;;;;;;5102871;27;20431;-78
2022/10/11 03:16:35;;;;;;;6.22;3.45;;;11.70;67.10;;;;;;5089107;27;20837;-79
2022/10/11 03:19:14;;;;;;;5.50;3.38;;;11.70;67.10;;;;;;5067749;28;20403;-79
2022/10/11 03:21:54;;;;;;;5.80;3.28;;;11.70;67.30;;;;;;5109353;27;20384;-79
2022/10/11 03:24:33;;;;;;;3.88;3.10;;;11.70;67.20;;;;;;5025642;27;20413;-79
2022/10/11 03:27:11;;;;;;;5.97;3.65;;;11.70;67.00;;;;;;5054376;28;20460;-79
2022/10/11 03:29:49;;;;;;;5.07;3.65;;;11.70;66.90;;;;;;5056548;27;20785;-78
2022/10/11 03:32:29;;;;;;;4.70;3.42;;;11.60;66.70;;;;;;5025687;28;20886;-79
2022/10/11 03:35:09;;;;;;;6.13;4.00;;;11.60;66.60;;;;;;5097204;27;20145;-79
2022/10/11 03:37:47;;;;;;;4.40;3.33;;;11.60;66.60;;;;;;5049367;28;20405;-79
2022/10/11 03:40:39;;;;;;;5.32;3.50;;;11.60;66.70;;;;;;5032494;28;20429;-79
2022/10/11 03:43:18;;;;;;;6.78;4.25;;;11.50;66.90;;;;;;5022174;28;20520;-79
2022/10/11 03:45:56;;;;;;;5.32;3.17;;;11.50;67.10;;;;;;5055883;28;20882;-73
2022/10/11 03:48:34;;;;;;;6.18;3.60;;;11.50;67.10;;;;;;5015805;27;20926;-76
2022/10/11 03:51:14;;;;;;;5.03;3.08;;;11.50;67.30;;;;;;5050312;27;20396;-75
2022/10/11 03:53:51;;;;;;;4.75;3.35;;;11.50;67.40;;;;;;5074356;27;20364;-75
2022/10/11 03:56:29;;;;;;;6.13;3.42;;;11.60;67.40;;;;;;5056471;27;20510;-76
2022/10/11 03:59:09;;;;;;;;;;;11.60;67.50;;;;;;5055470;27;1364807;-75
2022/10/11 04:01:46;;;;;;;6.22;3.47;;;11.60;67.40;;;;;;5064120;27;1340938;-76
2022/10/11 04:04:24;;;;;;;4.88;3.50;;;11.60;67.30;;;;;;5042501;28;20431;-78
2022/10/11 04:07:02;;;;;;;5.03;3.50;;;11.60;67.30;;;;;;5107584;27;20338;-84
2022/10/11 04:09:40;;;;;;;8.52;3.75;;;11.60;67.10;;;;;;5057128;28;20450;-83
2022/10/11 04:12:18;;;;;;;6.45;3.63;;;11.60;67.10;;;;;;5025188;28;20398;-86
2022/10/11 04:14:57;;;;;;;6.47;3.55;;;11.60;67.00;;;;;;5018710;28;20411;-84
2022/10/11 04:17:35;;;;;;;5.40;4.07;;;11.60;66.80;;;;;;5107043;27;20394;-79
2022/10/11 04:20:14;;;;;;;5.28;3.70;;;11.50;66.70;;;;;;5035839;28;21036;-77
2022/10/11 04:22:53;;;;;;;5.57;3.33;;;11.60;66.50;;;;;;5027384;28;20532;-76
2022/10/11 04:25:31;;;;;;;8.82;4.38;;;11.60;66.40;;;;;;5037678;28;20977;-76
2022/10/11 04:28:08;;;;;;;5.03;3.45;;;11.60;66.70;;;;;;5080161;27;1406995;-78
2022/10/11 04:30:44;;;;;;;;;;;11.50;66.80;;;;;;5077045;27;1358274;-79
2022/10/11 04:33:22;;;;;;;5.65;3.58;;;11.60;66.90;;;;;;5006081;28;20203;-78
2022/10/11 04:36:01;;;;;;;3.75;3.33;;;11.60;66.80;;;;;;5023002;28;20401;-78
2022/10/11 04:38:55;;;;;;;5.97;3.35;;;11.50;66.90;;;;;;5084109;27;20402;-81
2022/10/11 04:41:33;;;;;;;7.47;3.95;;;11.50;66.80;;;;;;5065971;27;20405;-77
2022/10/11 04:44:10;;;;;;;7.18;4.45;;;11.50;66.80;;;;;;5033060;27;20416;-75
2022/10/11 04:46:48;;;;;;;6.55;4.30;;;11.50;66.50;;;;;;5037265;28;20395;-75
2022/10/11 04:49:27;;;;;;;7.20;4.38;;;11.50;66.40;;;;;;5033281;28;20977;-76
2022/10/11 04:52:06;;;;;;;6.82;4.30;;;11.50;66.60;;;;;;5090950;27;20442;-75
2022/10/11 04:54:44;;;;;;;7.25;4.00;;;11.40;66.90;;;;;;5109293;27;20329;-76
2022/10/11 04:57:22;;;;;;;7.60;3.72;;;11.40;66.90;;;;;;5057473;27;20123;-76
2022/10/11 05:00:00;;;;;;;5.95;3.53;;;11.40;67.20;;;;;;5053577;27;20181;-74
2022/10/11 05:02:38;;;;;;;7.63;4.13;;;11.40;67.40;;;;;;5074944;27;20126;-75
2022/10/11 05:05:17;;;;;;;8.30;4.50;;;11.50;67.70;;;;;;5083509;27;20119;-77
2022/10/11 05:07:55;;;;;;;6.43;3.20;;;11.40;67.70;;;;;;5084307;27;20130;-74
2022/10/11 05:10:33;;;;;;;6.82;3.60;;;11.60;67.80;;;;;;5100815;27;20137;-75
2022/10/11 05:13:11;;;;;;;5.60;3.38;;;11.80;67.80;;;;;;5112738;27;20122;-75
2022/10/11 05:15:49;;;;;;;6.65;3.28;;;11.90;67.60;;;;;;5037376;27;20181;-75
2022/10/11 05:18:28;;;;;;;6.53;3.10;;;12.20;67.30;;;;;;5064243;27;20115;-74
2022/10/11 05:21:17;;;;;;;5.75;3.08;;;12.40;66.80;;;;;;4998519;28;20408;-73
2022/10/11 05:23:56;;;;;;;7.32;3.40;;;12.60;66.40;;;;;;5059997;27;20373;-75
2022/10/11 05:26:34;;;;;;;7.55;3.17;;;12.80;66.00;;;;;;5007847;28;20412;-74
2022/10/11 05:29:13;;;;;;;4.28;3.20;;;13.00;65.40;;;;;;5038631;27;20437;-73
2022/10/11 05:31:51;;;;;;;7.38;3.17;;;13.20;65.10;;;;;;5073723;27;20843;-73
2022/10/11 05:34:29;;;;;;;4.78;3.10;;;13.40;64.60;;;;;;5084209;27;20408;-74
2022/10/11 05:37:08;;;;;;;7.55;3.47;;;13.50;64.20;;;;;;5042493;28;20404;-74
2022/10/11 05:39:47;;;;;;;4.70;3.20;;;13.70;63.80;;;;;;5043402;28;20443;-74
2022/10/11 05:42:25;;;;;;;5.35;3.35;;;13.90;63.40;;;;;;5040940;27;20424;-74
2022/10/11 05:45:05;;;;;;;4.50;3.10;;;14.00;63.30;;;;;;5011713;28;20398;-74
2022/10/11 05:47:43;;;;;;;4.70;3.05;;;14.20;62.90;;;;;;5017893;28;20446;-74
2022/10/11 05:50:22;;;;;;;5.88;3.45;;;14.30;62.50;;;;;;5050904;27;20546;-74
2022/10/11 05:53:00;;;;;;;6.15;3.30;;;14.50;62.10;;;;;;5034914;27;20401;-75
2022/10/11 05:55:40;;;;;;;3.95;3.17;;;14.70;61.80;;;;;;5042294;28;20421;-74
2022/10/11 05:58:18;;;;;;;7.50;3.22;;;14.80;61.30;;;;;;5088574;27;20950;-76
2022/10/11 06:00:56;;;;;;;4.63;3.05;;;15.00;61.20;;;;;;5037672;28;20408;-75
2022/10/11 06:03:34;;;;;;;5.30;3.20;;;15.20;60.70;;;;;;5001174;27;20959;-75
2022/10/11 06:06:12;;;;;;;;;;;15.30;60.10;;;;;;5040064;27;20864;-76
2022/10/11 06:08:51;;;;;;;5.10;3.13;;;15.50;60.00;;;;;;5096641;27;20535;-75
2022/10/11 06:11:29;;;;;;;;;;;15.60;59.50;;;;;;5031374;28;20870;-76
2022/10/11 06:14:23;;;;;;;4.68;2.80;;;15.80;59.40;;;;;;5056826;27;20459;-75
2022/10/11 06:17:18;;;;;;;3.90;2.85;;;15.90;59.10;;;;;;5060946;27;20414;-75
2022/10/11 06:20:14;;;;;;;5.50;2.88;;;16.00;58.80;;;;;;5082335;27;20426;-74
2022/10/11 06:23:10;;;;;;;;;;;16.10;58.10;;;;;;5168680;27;20396;-76
2022/10/11 06:26:05;;;;;;;;;;;16.30;58.40;;;;;;5083346;27;20504;-74
2022/10/11 06:28:57;;;;;;;;;;;16.50;57.80;;;;;;5061740;27;20419;-75
2022/10/11 06:32:01;;;;;;;5.90;3.03;;;16.60;57.30;;;;;;5097275;27;21868;-75
2022/10/11 06:34:53;;;;;;;;;;;16.70;57.20;;;;;;5061509;27;20412;-74
2022/10/11 06:37:50;;;;;;;2.58;2.35;;;16.90;56.90;;;;;;5061404;27;20768;-76
2022/10/11 06:41:19;;;;;;;3.58;2.55;;;17.00;56.30;;;;;;5098489;27;20416;-75
2022/10/11 06:43:56;;;;;;;;;;;17.10;56.40;;;;;;3956308;27;33178927;-75
2022/10/11 06:46:50;;;;;;;3.67;2.55;;;17.30;56.10;;;;;;5063567;27;20418;-74
2022/10/11 06:49:46;;;;;;;;;;;17.40;56.00;;;;;;5122550;27;20217;-75
2022/10/11 06:52:40;;;;;;;;;;;17.50;55.40;;;;;;5091689;27;20772;-75
2022/10/11 06:55:35;;;;;;;;;;;17.60;55.20;;;;;;5170479;27;20491;-75
2022/10/11 06:58:32;;;;;;;;;;;17.70;54.80;;;;;;5127699;27;20261;-75
2022/10/11 07:01:35;;;;;;;;;;;17.80;54.60;;;;;;5106439;27;20911;-75
2022/10/11 07:04:27;;;;;;;;;;;17.90;54.20;;;;;;5067253;27;20465;-76
2022/10/11 07:07:18;;;;;;;;;;;17.90;54.10;;;;;;5069480;27;20417;-76
2022/10/11 07:10:09;;;;;;;;;;;18.00;53.90;;;;;;5070521;27;20433;-74
2022/10/11 07:13:06;;;;;;;;;;;18.10;53.80;;;;;;5069279;27;20419;-74
2022/10/11 07:15:42;;;;;;;3.08;2.30;;;18.10;53.50;;;;;;4033708;27;30378972;-73
2022/10/11 07:18:38;;;;;;;;;;;18.20;52.90;;;;;;5158525;27;20783;-74
2022/10/11 07:21:31;;;;;;;;;;;18.20;53.10;;;;;;5050846;27;20468;-74
2022/10/11 07:24:27;;;;;;;;;;;18.20;52.90;;;;;;5098202;27;20507;-74
2022/10/11 07:27:23;;;;;;;;;;;18.30;52.90;;;;;;5034743;27;20428;-75
2022/10/11 07:30:32;;;;;;;;;;;18.30;52.40;;;;;;5045196;27;20418;-74
2022/10/11 07:33:28;;;;;;;;;;;18.30;52.40;;;;;;5053535;27;20368;-74
2022/10/11 07:36:24;;;;;;;;;;;18.30;52.40;;;;;;5098280;27;20191;-74
2022/10/11 07:39:19;;;;;;;;;;;18.30;52.40;;;;;;5035415;27;20419;-75
2022/10/11 07:42:10;;;;;;;;;;;18.30;52.00;;;;;;5048784;27;20473;-74
2022/10/11 07:45:16;;;;;;;;;;;18.30;51.90;;;;;;5064556;27;20919;-75
2022/10/11 07:48:09;;;;;;;;;;;18.20;51.90;;;;;;5055373;27;20785;-74
2022/10/11 07:51:10;;;;;;;;;;;18.20;51.70;;;;;;5074065;27;20391;-75
2022/10/11 07:54:06;;;;;;;;;;;18.20;52.00;;;;;;5064634;27;20127;-74
2022/10/11 07:56:59;;;;;;;;;;;18.10;52.00;;;;;;5066766;27;20659;-75
2022/10/11 07:59:52;;;;;;;;;;;18.10;52.00;;;;;;5068519;27;20464;-74
2022/10/11 08:02:45;;;;;;;;;;;18.00;52.10;;;;;;5071645;27;20516;-74
2022/10/11 08:05:38;;;;;;;;;;;18.00;52.00;;;;;;5059824;27;20939;-75
2022/10/11 08:08:34;;;;;;;;;;;17.90;52.20;;;;;;5109450;27;20242;-75
2022/10/11 08:11:34;;;;;;;;;;;17.90;52.60;;;;;;5078465;27;20131;-74
2022/10/11 08:14:41;;;;;;;;;;;17.80;52.20;;;;;;5097951;27;20981;-74
2022/10/11 08:17:37;;;;;;;;;;;17.80;52.40;;;;;;5110392;27;20494;-75
2022/10/11 08:20:44;;;;;;;;;;;17.70;52.30;;;;;;5129758;27;20404;-77
2022/10/11 08:23:45;;;;;;;;;;;17.70;52.60;;;;;;5076750;27;20789;-74
2022/10/11 08:26:36;;;;;;;;;;;17.60;52.80;;;;;;5055143;27;20446;-75
2022/10/11 08:29:42;;;;;;;;;;;17.60;52.50;;;;;;5086567;27;20526;-74
2022/10/11 08:32:44;;;;;;;;;;;17.50;52.30;;;;;;5078115;27;20759;-74
2022/10/11 08:35:38;;;;;;;;;;;17.40;52.30;;;;;;5166403;27;20425;-75
2022/10/11 08:38:32;;;;;;;;;;;17.40;52.20;;;;;;5076595;27;20441;-76
2022/10/11 08:41:27;;;;;;;;;;;17.40;52.30;;;;;;5070409;27;20206;-76
2022/10/11 08:44:31;;;;;;;;;;;17.30;51.70;;;;;;5091630;27;20368;-76
2022/10/11 08:47:43;;;;;;;;;;;17.30;51.70;;;;;;5089716;27;21019;-76
2022/10/11 08:50:37;;;;;;;;;;;17.20;51.60;;;;;;5047388;27;20437;-76
2022/10/11 08:53:44;;;;;;;;;;;17.20;52.20;;;;;;5079964;27;20436;-77
2022/10/11 08:56:31;;;;;;;1.45;1.10;;;17.20;52.50;;;;;;5049709;28;20334;-77
2022/10/11 08:59:04;;;;;;;3.00;1.10;;;17.10;52.20;;;;;;5048158;28;20145;-77
2022/10/11 09:01:30;;;;;;;2.53;1.35;;;17.10;52.20;;;;;;5038421;28;20051;-77
2022/10/11 09:03:58;;;;;;;1.27;0.98;;;17.10;52.30;;;;;;5039254;28;20450;-77
2022/10/11 09:06:27;;;;;;;1.63;1.10;;;17.00;51.90;;;;;;5048446;28;20293;-77
2022/10/11 09:09:05;;;;;;;1.42;1.08;;;17.00;52.10;;;;;;5049504;28;20036;-77
2022/10/11 09:11:43;;;;;;;2.70;1.05;;;16.90;51.10;;;;;;5048766;28;20110;-77
2022/10/11 09:14:26;;;;;;;1.10;1.00;;;16.80;51.10;;;;;;5048444;28;20052;-77
2022/10/11 09:17:05;;;;;;;2.53;1.02;;;16.80;51.20;;;;;;5047153;28;20037;-79
2022/10/11 09:19:43;;;;;;;3.58;1.20;;;16.70;51.90;;;;;;5065012;28;20495;-84
2022/10/11 09:22:31;;;;;;;1.58;0.98;;;16.70;51.20;;;;;;5053153;28;20040;-83
2022/10/11 09:25:15;;;;;;;1.40;0.85;;;16.60;51.00;;;;;;5049107;28;20032;-83
2022/10/11 09:27:53;;;;;;;2.28;1.10;;;16.60;50.70;;;;;;5066806;28;20075;-84
2022/10/11 09:30:19;;;;;;;1.10;1.00;;;16.60;50.20;;;;;;5049007;28;20107;-83
2022/10/11 09:33:24;;;;;;;1.25;1.00;;;16.50;49.80;;;;;;5048526;28;20041;-84
2022/10/11 09:35:51;;;;;;;1.25;1.15;;;16.40;49.50;;;;;;5047279;28;20419;-82
2022/10/11 09:38:23;;;;;;;1.88;1.00;;;16.40;49.90;;;;;;5059041;28;20029;-79
2022/10/11 09:41:17;;;;;;;3.20;1.25;;;16.40;49.70;;;;;;5060958;28;20045;-84
2022/10/11 09:43:49;;;;;;;4.28;1.40;;;16.30;49.70;;;;;;5062907;28;20045;-83
2022/10/11 09:46:33;;;;;;;2.90;1.20;;;16.30;49.80;;;;;;5049442;28;20040;-82
2022/10/11 09:49:02;;;;;;;3.42;1.23;;;16.20;49.70;;;;;;5049285;28;20037;-84
2022/10/11 09:51:28;;;;;;;1.70;1.25;;;16.20;49.70;;;;;;5062402;28;20419;-83
2022/10/11 09:54:04;;;;;;;2.92;1.20;;;16.20;50.40;;;;;;5048755;28;20029;-84
2022/10/11 09:56:32;;;;;;;2.45;1.52;;;16.10;49.20;;;;;;5048434;28;20636;-84
2022/10/11 09:59:34;;;;;;;2.03;1.20;;;16.10;48.80;;;;;;5061294;28;20119;-83
2022/10/11 10:02:18;;;;;;;1.48;1.00;;;16.10;49.80;;;;;;5048885;28;20036;-85
2022/10/11 10:04:55;;;;;;;1.75;1.20;;;16.00;49.30;;;;;;5050218;28;20036;-85
2022/10/11 10:07:22;;;;;;;2.17;1.25;;;16.00;49.40;;;;;;5033857;28;20032;-84
2022/10/11 10:09:49;;;;;;;1.73;1.20;;;16.00;48.70;;;;;;5035880;28;20025;-83
2022/10/11 10:12:21;;;;;;;1.83;1.42;;;16.00;48.70;;;;;;5035667;28;20041;-83
2022/10/11 10:15:17;;;;;;;1.52;1.25;;;15.90;48.80;;;;;;5034475;28;20033;-85
2022/10/11 10:17:52;;;;;;;2.83;1.25;;;15.90;49.90;;;;;;5033858;28;20435;-80
2022/10/11 10:20:37;;;;;;;2.70;1.10;;;15.90;50.10;;;;;;5035958;28;20042;-78
2022/10/11 10:23:22;;;;;;;1.75;1.38;;;15.90;50.00;;;;;;5034454;28;20047;-77
2022/10/11 10:25:53;;;;;;;2.58;1.52;;;15.90;50.70;;;;;;5027782;28;20029;-77
2022/10/11 10:28:25;;;;;;;3.33;1.63;;;15.90;51.30;;;;;;5050758;28;20034;-76
2022/10/11 10:30:56;;;;;;;3.00;1.52;;;15.90;51.00;;;;;;5034052;28;20022;-77
2022/10/11 10:33:25;;;;;;;3.20;1.45;;;15.90;51.10;;;;;;5034903;28;20044;-76
2022/10/11 10:36:04;;;;;;;1.80;1.00;;;15.90;50.60;;;;;;5032715;28;20063;-77
2022/10/11 10:38:46;;;;;;;2.35;1.30;;;15.90;50.80;;;;;;5034378;28;20029;-76
2022/10/11 10:41:15;;;;;;;2.30;1.17;;;15.90;50.70;;;;;;5032529;28;20057;-77
2022/10/11 10:43:52;;;;;;;2.03;1.15;;;15.90;50.80;;;;;;5038674;28;20458;-77
2022/10/11 10:46:54;;;;;;;1.48;1.15;;;15.90;51.30;;;;;;5035319;28;20040;-77
2022/10/11 10:49:37;;;;;;;1.60;1.17;;;15.90;51.30;;;;;;5033326;28;20550;-77
2022/10/11 10:52:17;;;;;;;2.33;1.23;;;16.00;50.50;;;;;;5034748;28;20073;-76
2022/10/11 10:54:52;;;;;;;2.30;1.65;;;15.90;51.00;;;;;;5057062;28;20048;-77
2022/10/11 10:57:34;;;;;;;3.78;1.45;;;16.00;51.40;;;;;;5054455;28;20539;-77
2022/10/11 11:00:09;;;;;;;3.92;1.42;;;16.00;51.50;;;;;;5058159;28;20037;-76
2022/10/11 11:03:00;;;;;;;2.97;1.65;;;16.00;51.10;;;;;;5053581;28;20055;-76
2022/10/11 11:05:43;;;;;;;2.45;1.10;;;16.00;50.00;;;;;;5068145;28;20128;-77
2022/10/11 11:08:21;;;;;;;1.33;1.00;;;16.00;49.20;;;;;;5037252;28;20091;-77
2022/10/11 11:11:06;;;;;;;1.73;1.45;;;16.00;50.00;;;;;;5053186;28;20543;-77
2022/10/11 11:13:59;;;;;;;1.80;1.08;;;16.00;50.10;;;;;;5038599;28;20068;-77
2022/10/11 11:16:54;;;;;;;2.30;1.25;;;16.00;49.70;;;;;;5036402;28;20033;-76
2022/10/11 11:19:29;;;;;;;2.75;1.20;;;16.00;50.30;;;;;;5021022;28;20083;-76
2022/10/11 11:21:59;;;;;;;2.85;1.50;;;16.00;50.00;;;;;;5037874;28;20134;-77
2022/10/11 11:24:49;;;;;;;2.45;1.08;;;16.00;50.20;;;;;;5037335;28;20040;-76
2022/10/11 11:27:35;;;;;;;3.10;1.20;;;16.10;50.10;;;;;;5036702;28;20044;-77
2022/10/11 11:30:31;;;;;;;2.10;1.48;;;16.10;49.80;;;;;;5037159;28;20044;-76
2022/10/11 11:33:18;;;;;;;2.80;1.55;;;16.10;49.80;;;;;;4941099;28;20039;-76
2022/10/11 11:35:54;;;;;;;2.05;1.25;;;16.10;50.00;;;;;;4940296;28;20562;-76
2022/10/11 11:38:37;;;;;;;2.50;1.00;;;16.10;49.70;;;;;;4941428;28;20035;-77
2022/10/11 11:41:11;;;;;;;1.83;1.20;;;16.10;49.40;;;;;;4940431;29;20047;-77
2022/10/11 11:43:50;;;;;;;3.38;1.30;;;16.10;49.60;;;;;;4941160;29;20134;-77
2022/10/11 11:46:23;;;;;;;3.15;1.30;;;16.10;50.20;;;;;;4929595;28;20035;-77
2022/10/11 11:48:51;;;;;;;2.17;1.50;;;16.10;50.00;;;;;;4941788;29;20159;-77
2022/10/11 11:51:22;;;;;;;2.08;1.05;;;16.10;49.70;;;;;;4937863;28;20668;-77
2022/10/11 11:54:08;;;;;;;1.33;1.00;;;16.20;48.80;;;;;;4940266;28;20047;-77
2022/10/11 11:56:58;;;;;;;1.35;0.90;;;16.20;48.90;;;;;;4958278;28;20580;-77
2022/10/11 11:59:33;;;;;;;2.33;1.60;;;16.20;49.40;;;;;;4986172;28;20037;-76
2022/10/11 12:02:24;;;;;;;2.33;1.40;;;16.20;49.30;;;;;;4986271;28;20133;-77
2022/10/11 12:04:51;;;;;;;2.80;1.80;;;16.20;49.70;;;;;;5003067;28;20097;-77
2022/10/11 12:07:21;;;;;;;3.75;2.05;;;16.20;49.80;;;;;;4986115;28;20153;-76
2022/10/11 12:09:53;;;;;;;2.72;1.70;;;16.20;49.50;;;;;;5026370;28;20033;-77
2022/10/11 12:12:30;;;;;;;2.20;1.40;;;16.20;49.50;;;;;;5052259;28;20052;-77
2022/10/11 12:15:09;;;;;;;2.67;1.33;;;16.20;49.30;;;;;;5049855;28;20035;-76
2022/10/11 12:17:54;;;;;;;1.95;1.50;;;16.20;48.70;;;;;;5058074;28;20029;-77
2022/10/11 12:20:37;;;;;;;2.13;1.57;;;16.20;48.60;;;;;;5067329;28;20029;-78
2022/10/11 12:23:28;;;;;;;2.20;1.65;;;16.20;48.80;;;;;;5052395;28;20279;-77
2022/10/11 12:26:33;;;;;;;2.58;1.48;;;16.20;48.10;;;;;;5052768;28;20385;-76
2022/10/11 12:29:17;;;;;;;2.17;1.70;;;16.20;47.70;;;;;;5051764;28;20119;-77
2022/10/11 12:31:46;;;;;;;2.97;1.30;;;16.10;47.40;;;;;;5051140;28;20608;-77
2022/10/11 12:34:33;;;;;;;2.33;1.63;;;16.10;48.10;;;;;;5052963;28;20098;-76
2022/10/11 12:37:20;;;;;;;3.22;1.40;;;16.20;48.20;;;;;;5051702;28;20500;-76
2022/10/11 12:39:52;;;;;;;2.53;1.40;;;16.10;48.00;;;;;;5051251;28;20106;-77
2022/10/11 12:42:27;;;;;;;4.53;1.63;;;16.20;48.00;;;;;;5037161;28;20029;-77
2022/10/11 12:45:23;;;;;;;2.85;1.42;;;16.10;48.50;;;;;;5067406;28;20033;-74
2022/10/11 12:48:21;;;;;;;2.40;1.38;;;16.20;48.30;;;;;;5055958;28;20459;-75
2022/10/11 12:50:50;;;;;;;2.03;1.27;;;16.10;48.20;;;;;;5049463;28;20090;-75
2022/10/11 12:53:48;;;;;;;3.42;1.55;;;16.10;47.80;;;;;;5056276;28;20135;-76
2022/10/11 12:56:44;;;;;;;2.55;1.20;;;16.10;47.60;;;;;;5071017;28;20466;-75
2022/10/11 12:59:20;;;;;;;2.42;1.50;;;16.10;47.80;;;;;;5051994;28;20029;-74
2022/10/11 13:01:54;;;;;;;;;;;16.10;48.40;;;;;;5053309;28;20641;-76
2022/10/11 13:04:24;;;;;;;2.35;1.38;;;16.10;48.70;;;;;;5057133;28;20008;-77
2022/10/11 13:06:53;;;;;;;2.03;1.50;;;16.10;49.10;;;;;;5057063;28;20394;-76
2022/10/11 13:09:34;;;;;;;2.47;1.30;;;16.10;49.20;;;;;;5063590;28;20032;-73
2022/10/11 13:12:18;;;;;;;2.10;1.42;;;16.10;49.30;;;;;;5052406;28;20554;-75
2022/10/11 13:15:07;;;;;;;3.17;1.88;;;16.10;49.20;;;;;;5051636;28;20450;-74
2022/10/11 13:17:36;;;;;;;2.78;1.65;;;16.10;49.20;;;;;;5052120;28;20048;-74
2022/10/11 13:20:14;;;;;;;3.67;1.90;;;16.10;49.00;;;;;;5051239;28;20032;-75
2022/10/11 13:22:40;;;;;;;2.33;1.60;;;16.10;49.10;;;;;;5050520;28;20029;-77
2022/10/11 13:25:07;;;;;;;2.72;1.60;;;16.10;49.20;;;;;;5051829;28;20442;-75
2022/10/11 13:27:36;;;;;;;3.53;1.90;;;16.10;49.20;;;;;;5050353;28;20414;-77
2022/10/11 13:30:23;;;;;;;2.42;1.60;;;16.10;49.50;;;;;;5052270;28;20029;-77
2022/10/11 13:32:50;;;;;;;1.85;1.60;;;16.10;49.40;;;;;;5051622;28;20041;-76
2022/10/11 13:35:23;;;;;;;2.22;1.67;;;16.10;49.30;;;;;;5050821;28;20123;-77
2022/10/11 13:37:49;;;;;;;1.92;1.33;;;16.10;49.60;;;;;;5051787;28;20036;-75
2022/10/11 13:40:18;;;;;;;2.67;1.60;;;16.10;49.60;;;;;;5054996;28;20039;-77
2022/10/11 13:42:44;;;;;;;2.83;1.63;;;16.10;50.00;;;;;;5056785;28;20407;-77
2022/10/11 13:45:17;;;;;;;4.07;2.03;;;16.10;50.20;;;;;;5070272;28;20474;-77
2022/10/11 13:47:43;;;;;;;3.10;1.85;;;16.10;50.40;;;;;;5055297;28;20060;-76
2022/10/11 13:50:18;;;;;;;3.05;1.90;;;16.10;50.80;;;;;;5056855;28;20066;-77
2022/10/11 13:53:21;;;;;;;4.22;2.17;;;16.10;50.80;;;;;;5054413;28;20402;-76
2022/10/11 13:55:56;;;;;;;3.88;2.17;;;16.10;51.10;;;;;;5054357;28;20545;-76
2022/10/11 13:58:24;;;;;;;3.45;1.83;;;16.10;51.10;;;;;;5055192;28;20136;-76
2022/10/11 14:01:16;;;;;;;4.28;2.05;;;16.20;51.30;;;;;;5055869;28;20029;-77
2022/10/11 14:04:00;;;;;;;3.95;1.65;;;16.20;51.30;;;;;;5052623;28;20064;-76
2022/10/11 14:07:01;;;;;;;3.13;1.85;;;16.20;51.60;;;;;;5054492;28;20056;-77
2022/10/11 14:09:35;;;;;;;2.88;1.90;;;16.10;51.40;;;;;;5052211;28;20045;-77
2022/10/11 14:12:43;;;;;;;5.68;2.50;;;16.10;51.30;;;;;;5052355;28;20523;-77
2022/10/11 14:15:35;;;;;;;5.30;2.47;;;16.10;51.40;;;;;;5040423;28;20762;-77
2022/10/11 14:18:34;;;;;;;4.80;2.38;;;16.10;51.40;;;;;;5051967;28;20044;-77
2022/10/11 14:21:39;;;;;;;4.32;2.22;;;16.10;51.60;;;;;;5031314;28;20035;-78
2022/10/11 14:24:09;;;;;;;4.35;2.53;;;16.10;51.80;;;;;;5032960;28;20133;-76
2022/10/11 14:26:42;;;;;;;4.03;2.25;;;16.10;51.80;;;;;;5032697;28;20106;-78